Brise-du-Lac, Quebec

6:19 PM EDT on June 26, 2017 (GMT -0400)
Glen Wexford | | Change Station

Elev 910 ft 45.99 °N, 74.12 °W | Updated 1 second ago

Clear
Clear
65.5 °F
Feels Like 65.5 °F
N
1.0
Wind Variable Wind from WNW
Gusts 2.0 mph

Today
High -- | Low -- °F
--% Chance of Precip.
Yesterday
High -- | Low -- °F
Precip. -- in
Pressure 29.93 in
Visibility 45.0 miles
Clouds Few 6500 ft
Few 16000 ft
Few 26000 ft
Dew Point 42 °F
Humidity 43%
Rainfall 0.00 in
Snow Depth Not available.
5:06 AM 8:51 PM
Waxing Crescent, 11% visible
METAR CYMX 262100Z 25007KT 220V300 45SM FEW065 FEW160 FEW260 21/06 A2992 RMK CU1CI1CI1 CI TR CI TR SLP135 DENSITY ALT 1100FT
Pressure 29.93 in
Visibility 45.0 miles
Clouds Few 6500 ft
Few 16000 ft
Few 26000 ft
Dew Point 42 °F
Humidity 43%
Rainfall 0.00 in
Snow Depth Not available.
5:06 AM 8:51 PM
Waxing Crescent, 11% visible
METAR CYMX 262100Z 25007KT 220V300 45SM FEW065 FEW160 FEW260 21/06 A2992 RMK CU1CI1CI1 CI TR CI TR SLP135 DENSITY ALT 1100FT

Get Severe Weather Alerts

Thanks for signing up!

Be on the lookout for a verification email in your inbox.

You'll start receiving the daily forecast at 6 AM.

×

10-Day Weather Forecast

Almanac

Astronomy

Jun. 26, 2017 Rise Set
Actual Time
Civil Twilight
Nautical Twilight
Astronomical Twilight
Moon
Length of Visible Light
Length of Day
Tomorrow will be .
, % of the Moon is Illuminated

Today's Extremes

Country Highs Country Lows

Community

WunderPhotos

Category 6

Welcome to Category 6. This is the collective home for Weather Underground's featured writeups by Dr. Jeff Masters (right), Bob Henson (left), Chris Burt, and other regular contributors.

Nearby

Air Quality

  Air Quality AQ Index Pollutant
Not available.

Snow Depth

Station Depth Elevation

Earthquake Activity

City Distance Mag. Time & Date
Minimum magnitude displayed is 2.5.

Coastal Water Temperatures

Place Temperature

Stations

Nearby Weather Stations

Station Location Temp. Windchill Dew Point Humidity Wind Precip. Elev Updated Type
                   

Watches & Warnings

There are currently no watches in effect.